createdAt,value
2022-09-21T00:01:39.753Z,99895.09
2022-09-21T00:04:09.686Z,99894.06
2022-09-21T00:06:39.112Z,99886.56
2022-09-21T00:09:09.489Z,99888.59
2022-09-21T00:11:38.546Z,99889.88
2022-09-21T00:14:10.712Z,99893.00
2022-09-21T00:16:40.407Z,99890.13
2022-09-21T00:19:10.585Z,99889.91
2022-09-21T00:21:39.484Z,99884.72
2022-09-21T00:24:08.703Z,99886.56
2022-09-21T00:26:37.055Z,99891.13
2022-09-21T00:29:05.839Z,99892.81
2022-09-21T00:31:35.012Z,99891.34
2022-09-21T00:34:03.904Z,99896.94
2022-09-21T00:36:33.683Z,99895.91
2022-09-21T00:39:03.434Z,99900.50
2022-09-21T00:41:34.644Z,99909.97
2022-09-21T00:44:25.279Z,99898.13
2022-09-21T00:46:56.618Z,99902.03
2022-09-21T00:49:26.714Z,99898.31
2022-09-21T00:51:58.354Z,99900.19
2022-09-21T00:54:31.223Z,99901.88
2022-09-21T00:57:03.186Z,99898.53
2022-09-21T00:59:33.773Z,99891.47
2022-09-21T01:02:02.737Z,99895.19
2022-09-21T01:04:31.864Z,99895.38
2022-09-21T01:07:05.778Z,99891.03
2022-09-21T01:09:34.887Z,99894.72
2022-09-21T01:12:19.468Z,99893.28
2022-09-21T01:14:59.012Z,99892.44
2022-09-21T01:17:37.551Z,99886.19
2022-09-21T01:20:37.057Z,99893.69
2022-09-21T01:23:23.885Z,99895.53
2022-09-21T01:26:05.721Z,99898.25
2022-09-21T01:28:55.964Z,99896.56
2022-09-21T01:31:29.604Z,99886.81
2022-09-21T01:34:05.908Z,99895.94
2022-09-21T01:36:36.202Z,99889.72
2022-09-21T01:39:09.667Z,99900.50
2022-09-21T01:41:41.751Z,99897.97
2022-09-21T01:44:16.027Z,99897.97
2022-09-21T01:46:47.175Z,99896.31
2022-09-21T01:49:19.210Z,99894.66
2022-09-21T01:51:51.576Z,99893.19
2022-09-21T01:54:23.431Z,99899.59
2022-09-21T01:56:56.882Z,99896.06
2022-09-21T01:59:32.772Z,99892.53
2022-09-21T02:02:06.202Z,99895.59
2022-09-21T02:04:36.312Z,99903.69
2022-09-21T02:07:06.034Z,99894.78
2022-09-21T02:09:36.630Z,99901.00
2022-09-21T02:12:05.874Z,99909.09
2022-09-21T02:14:38.490Z,99896.66
2022-09-21T02:17:16.605Z,99900.38
2022-09-21T02:19:50.820Z,99907.63
2022-09-21T02:22:29.511Z,99906.81
2022-09-21T02:25:06.600Z,99910.72
2022-09-21T02:27:42.246Z,99908.84
2022-09-21T02:30:16.122Z,99911.56
2022-09-21T02:32:51.717Z,99910.72
2022-09-21T02:35:32.245Z,99915.91
2022-09-21T02:38:08.383Z,99908.84
2022-09-21T02:40:41.745Z,99915.28
2022-09-21T02:43:16.296Z,99924.22
2022-09-21T02:45:52.232Z,99924.22
2022-09-21T02:48:25.850Z,99914.25
2022-09-21T02:50:59.003Z,99916.13
2022-09-21T02:53:31.414Z,99911.75
2022-09-21T02:56:04.120Z,99909.91
2022-09-21T02:58:33.915Z,99910.72
2022-09-21T03:01:04.598Z,99907.00
2022-09-21T03:03:33.208Z,99901.81
2022-09-21T03:06:02.223Z,99901.59
2022-09-21T03:08:31.193Z,99901.59
2022-09-21T03:10:59.537Z,99903.25
2022-09-21T03:13:28.092Z,99901.59
2022-09-21T03:16:01.687Z,99909.50
2022-09-21T03:18:32.196Z,99915.72
2022-09-21T03:21:00.983Z,99910.34
2022-09-21T03:23:29.553Z,99913.03
2022-09-21T03:25:57.948Z,99909.50
2022-09-21T03:28:26.655Z,99914.69
2022-09-21T03:30:55.153Z,99912.66
2022-09-21T03:33:25.256Z,99903.53
2022-09-21T03:35:55.456Z,99906.84
2022-09-21T03:38:27.072Z,99912.88
2022-09-21T03:40:58.395Z,99905.44
2022-09-21T03:43:27.209Z,99897.81
2022-09-21T03:45:55.634Z,99899.25
2022-09-21T03:48:24.119Z,99900.72
2022-09-21T03:50:55.052Z,99891.41
2022-09-21T03:53:23.452Z,99901.81
2022-09-21T03:55:51.783Z,99902.44
2022-09-21T03:58:20.193Z,99903.09
2022-09-21T04:00:48.582Z,99900.00
2022-09-21T04:03:16.995Z,99907.69
2022-09-21T04:05:45.308Z,99903.97
2022-09-21T04:08:15.115Z,99897.34
2022-09-21T04:10:43.578Z,99902.53
2022-09-21T04:13:13.666Z,99905.88
2022-09-21T04:15:42.217Z,99904.63
2022-09-21T04:18:10.613Z,99902.59
2022-09-21T04:20:38.976Z,99895.09
2022-09-21T04:23:09.468Z,99893.06
2022-09-21T04:25:39.253Z,99898.06
2022-09-21T04:28:07.919Z,99896.00
2022-09-21T04:30:38.020Z,99897.47
2022-09-21T04:33:06.601Z,99895.44
2022-09-21T04:35:35.133Z,99903.97
2022-09-21T04:38:03.502Z,99908.97
2022-09-21T04:40:32.025Z,99906.72
2022-09-21T04:43:02.065Z,99908.97
2022-09-21T04:45:31.236Z,99905.88
2022-09-21T04:47:59.653Z,99915.25
2022-09-21T04:50:28.109Z,99913.19
2022-09-21T04:53:05.972Z,99921.72
2022-09-21T04:55:34.375Z,99911.34
2022-09-21T04:58:04.156Z,99908.03
2022-09-21T05:00:33.146Z,99909.53
2022-09-21T05:03:01.473Z,99910.59
2022-09-21T05:05:30.032Z,99912.88
2022-09-21T05:07:58.401Z,99914.97
2022-09-21T05:10:25.832Z,99907.50
2022-09-21T05:12:54.496Z,99903.16
2022-09-21T05:15:24.255Z,99909.00
2022-09-21T05:17:52.747Z,99911.28
2022-09-21T05:20:21.149Z,99915.03
2022-09-21T05:22:49.565Z,99920.88
2022-09-21T05:25:18.602Z,99920.28
2022-09-21T05:27:46.961Z,99922.56
2022-09-21T05:30:16.670Z,99913.03
2022-09-21T05:32:51.748Z,99908.22
2022-09-21T05:35:31.732Z,99912.00
2022-09-21T05:38:05.763Z,99912.41
2022-09-21T05:40:35.176Z,99919.06
2022-09-21T05:43:04.324Z,99908.47
2022-09-21T05:45:33.721Z,99904.34
2022-09-21T05:48:13.543Z,99905.38
2022-09-21T05:50:54.403Z,99901.22
2022-09-21T05:53:43.167Z,99908.72
2022-09-21T05:56:25.758Z,99899.16
2022-09-21T05:59:02.455Z,99900.59
2022-09-21T06:01:42.159Z,99901.66
2022-09-21T06:04:13.788Z,99909.97
2022-09-21T06:06:42.152Z,99902.91
2022-09-21T06:09:10.594Z,99905.81
2022-09-21T06:11:38.968Z,99902.69
2022-09-21T06:14:07.553Z,99910.81
2022-09-21T06:16:39.521Z,99912.28
2022-09-21T06:19:08.094Z,99897.91
2022-09-21T06:21:38.023Z,99900.38
2022-09-21T06:24:06.738Z,99906.41
2022-09-21T06:26:35.537Z,99907.03
2022-09-21T06:29:03.927Z,99908.25
2022-09-21T06:31:32.389Z,99903.22
2022-09-21T06:34:01.256Z,99903.78
2022-09-21T06:36:29.657Z,99903.13
2022-09-21T06:38:59.488Z,99903.09
2022-09-21T06:41:27.922Z,99900.75
2022-09-21T06:43:57.376Z,99904.69
2022-09-21T06:46:25.986Z,99909.84
2022-09-21T06:48:54.511Z,99904.19
2022-09-21T06:51:24.140Z,99903.94
2022-09-21T06:53:56.933Z,99908.03
2022-09-21T06:56:27.297Z,99916.75
2022-09-21T06:58:56.639Z,99916.47
2022-09-21T07:01:25.636Z,99921.41
2022-09-21T07:03:54.659Z,99921.97
2022-09-21T07:06:23.319Z,99924.63
2022-09-21T07:11:43.865Z,99920.81
2022-09-21T07:14:12.264Z,99919.44
2022-09-21T07:16:41.222Z,99915.06
2022-09-21T07:19:11.735Z,99921.03
2022-09-21T07:21:40.805Z,99915.13
2022-09-21T07:24:12.417Z,99915.47
2022-09-21T07:26:41.286Z,99905.13
2022-09-21T07:29:11.114Z,99918.38
2022-09-21T07:31:39.792Z,99907.38
2022-09-21T07:34:08.434Z,99908.69
2022-09-21T07:36:36.857Z,99898.19
2022-09-21T07:39:05.538Z,99898.53
2022-09-21T07:41:33.911Z,99898.91
2022-09-21T07:44:02.670Z,99899.97
2022-09-21T07:46:32.728Z,99904.34
2022-09-21T07:49:01.725Z,99907.22
2022-09-21T07:51:30.129Z,99908.28
2022-09-21T07:53:58.517Z,99908.75
2022-09-21T07:56:27.469Z,99908.75
2022-09-21T07:59:06.903Z,99906.59
2022-09-21T08:01:38.303Z,99912.38
2022-09-21T08:04:08.496Z,99905.47
2022-09-21T08:06:40.322Z,99907.84
2022-09-21T08:09:09.635Z,99908.53
2022-09-21T08:11:39.347Z,99899.97
2022-09-21T08:14:08.084Z,99897.34
2022-09-21T08:16:39.601Z,99899.09
2022-09-21T08:19:08.175Z,99903.78
2022-09-21T08:21:36.593Z,99903.41
2022-09-21T08:24:05.073Z,99900.41
2022-09-21T08:26:33.688Z,99903.44
2022-09-21T08:29:02.147Z,99910.84
2022-09-21T08:31:31.164Z,99907.50
2022-09-21T08:34:01.566Z,99903.13
2022-09-21T08:36:30.346Z,99907.75
2022-09-21T08:38:59.059Z,99894.78
2022-09-21T08:41:46.495Z,99899.72
2022-09-21T08:44:20.250Z,99891.19
2022-09-21T08:46:56.119Z,99892.97
2022-09-21T08:49:29.866Z,99891.06
2022-09-21T08:52:02.918Z,99888.34
2022-09-21T08:54:40.199Z,99875.97
2022-09-21T08:57:13.291Z,99873.88
2022-09-21T08:59:45.628Z,99880.13
2022-09-21T09:02:38.155Z,99874.97
2022-09-21T09:05:26.080Z,99869.22
2022-09-21T09:08:19.000Z,99870.94
2022-09-21T09:10:58.022Z,99870.16
2022-09-21T09:13:51.637Z,99866.66
2022-09-21T09:16:29.236Z,99862.22
2022-09-21T09:19:02.910Z,99862.69
2022-09-21T09:21:37.883Z,99862.81
2022-09-21T09:24:12.514Z,99847.69
2022-09-21T09:26:45.979Z,99843.91
2022-09-21T09:29:24.272Z,99848.16
2022-09-21T09:31:55.578Z,99852.06
2022-09-21T09:34:30.234Z,99855.97
2022-09-21T09:37:06.980Z,99856.34
2022-09-21T09:39:35.485Z,99855.31
2022-09-21T09:42:20.245Z,99855.06
2022-09-21T09:45:04.054Z,99855.31
2022-09-21T09:47:45.788Z,99848.06
2022-09-21T09:50:21.883Z,99848.22
2022-09-21T09:52:54.391Z,99845.34
2022-09-21T09:55:30.349Z,99844.41
2022-09-21T09:57:59.222Z,99846.91
2022-09-21T10:00:27.766Z,99855.66
2022-09-21T10:02:58.707Z,99860.28
2022-09-21T10:05:34.730Z,99850.91
2022-09-21T10:08:04.907Z,99855.16
2022-09-21T10:10:36.457Z,99853.97
2022-09-21T10:13:12.138Z,99842.41
2022-09-21T10:15:45.418Z,99846.78
2022-09-21T10:18:21.543Z,99843.59
2022-09-21T10:20:58.372Z,99840.38
2022-09-21T10:23:28.197Z,99839.31
2022-09-21T10:26:03.571Z,99837.88
2022-09-21T10:28:32.598Z,99835.41
2022-09-21T10:31:12.278Z,99841.34
2022-09-21T10:33:50.074Z,99840.50
2022-09-21T10:36:30.994Z,99828.97
2022-09-21T10:39:18.928Z,99838.34
2022-09-21T10:41:51.280Z,99844.75
2022-09-21T10:44:21.829Z,99838.47
2022-09-21T10:46:51.897Z,99833.50
2022-09-21T10:49:24.286Z,99831.03
2022-09-21T10:51:55.150Z,99841.56
2022-09-21T10:54:28.573Z,99834.59
2022-09-21T10:57:03.513Z,99837.69
2022-09-21T10:59:33.878Z,99838.63
2022-09-21T11:02:03.495Z,99836.34
2022-09-21T11:04:40.608Z,99832.19
2022-09-21T11:07:22.052Z,99835.75
2022-09-21T11:09:59.889Z,99828.91
2022-09-21T11:12:39.551Z,99830.44
2022-09-21T11:15:18.432Z,99826.03
2022-09-21T11:17:53.464Z,99826.75
2022-09-21T11:20:31.745Z,99828.31
2022-09-21T11:23:06.546Z,99826.03
2022-09-21T11:25:42.529Z,99827.69
2022-09-21T11:28:19.621Z,99823.06
2022-09-21T11:31:05.952Z,99826.03
2022-09-21T11:33:49.643Z,99814.78
2022-09-21T11:36:26.952Z,99824.84
2022-09-21T11:39:04.601Z,99818.81
2022-09-21T11:41:57.232Z,99820.69
2022-09-21T11:44:39.444Z,99814.44
2022-09-21T11:47:19.166Z,99818.44
2022-09-21T11:50:29.399Z,99813.84
2022-09-21T11:53:07.078Z,99805.66
2022-09-21T11:55:49.483Z,99807.81
2022-09-21T11:58:28.745Z,99808.88
2022-09-21T12:01:10.212Z,99807.81
2022-09-21T12:03:50.880Z,99813.00
2022-09-21T12:06:46.585Z,99811.34
2022-09-21T12:09:35.876Z,99813.25
2022-09-21T12:12:10.836Z,99809.94
2022-09-21T12:15:01.359Z,99807.44
2022-09-21T12:17:44.787Z,99793.25
2022-09-21T12:20:23.261Z,99797.03
2022-09-21T12:22:58.404Z,99799.75
2022-09-21T12:25:37.938Z,99799.41
2022-09-21T12:28:13.734Z,99790.88
2022-09-21T12:30:51.327Z,99801.75
2022-09-21T12:33:26.880Z,99794.41
2022-09-21T12:36:00.460Z,99791.13
2022-09-21T12:41:16.201Z,99785.53
2022-09-21T12:43:48.390Z,99796.41
2022-09-21T12:46:22.763Z,99795.56
2022-09-21T12:48:53.087Z,99803.09
2022-09-21T12:51:26.891Z,99798.97
2022-09-21T12:54:00.161Z,99801.72
2022-09-21T12:56:38.980Z,99798.97
2022-09-21T12:59:31.944Z,99794.84
2022-09-21T13:02:14.735Z,99792.13
2022-09-21T13:04:53.521Z,99792.13
2022-09-21T13:08:04.519Z,99795.66
2022-09-21T13:10:40.890Z,99786.66
2022-09-21T13:13:24.299Z,99788.56
2022-09-21T13:15:53.714Z,99789.03
2022-09-21T13:18:29.719Z,99789.84
2022-09-21T13:21:02.221Z,99787.13
2022-09-21T13:23:42.201Z,99786.88
2022-09-21T13:26:13.030Z,99783.34
2022-09-21T13:28:46.345Z,99784.66
2022-09-21T13:31:43.528Z,99784.41
2022-09-21T13:34:28.984Z,99787.38
2022-09-21T13:37:28.581Z,99780.50
2022-09-21T13:40:40.011Z,99783.44
2022-09-21T13:43:46.554Z,99783.31
2022-09-21T13:46:52.488Z,99788.16
2022-09-21T13:49:31.348Z,99788.41
2022-09-21T13:52:03.369Z,99786.75
2022-09-21T13:54:35.650Z,99785.69
2022-09-21T13:57:21.561Z,99778.34
2022-09-21T14:00:06.315Z,99781.06
2022-09-21T14:02:44.512Z,99784.03
2022-09-21T14:05:26.998Z,99781.88
2022-09-21T14:07:58.632Z,99774.81
2022-09-21T14:10:29.577Z,99768.28
2022-09-21T14:12:58.340Z,99769.13
2022-09-21T14:15:39.238Z,99770.66
2022-09-21T14:18:47.161Z,99775.88
2022-09-21T14:21:18.748Z,99770.66
2022-09-21T14:24:23.131Z,99776.09
2022-09-21T14:27:03.428Z,99773.00
2022-09-21T14:29:40.584Z,99775.72
2022-09-21T14:32:13.312Z,99784.13
2022-09-21T14:34:45.077Z,99776.44
2022-09-21T14:37:29.064Z,99779.41
2022-09-21T14:39:59.553Z,99777.72
2022-09-21T14:42:29.932Z,99776.06
2022-09-21T14:45:04.020Z,99773.34
2022-09-21T14:47:53.039Z,99779.03
2022-09-21T14:50:30.273Z,99781.38
2022-09-21T14:53:29.889Z,99779.94
2022-09-21T14:56:22.649Z,99777.22
2022-09-21T14:59:07.660Z,99780.75
2022-09-21T15:01:42.264Z,99779.94
2022-09-21T15:04:33.566Z,99792.91
2022-09-21T15:07:35.043Z,99790.66
2022-09-21T15:10:40.429Z,99791.50
2022-09-21T15:13:25.747Z,99792.53
2022-09-21T15:16:09.451Z,99789.84
2022-09-21T15:18:42.698Z,99791.97
2022-09-21T15:21:22.647Z,99796.34
2022-09-21T15:23:53.087Z,99793.00
2022-09-21T15:26:26.811Z,99795.72
2022-09-21T15:29:09.429Z,99791.97
2022-09-21T15:31:40.619Z,99791.97
2022-09-21T15:34:10.965Z,99793.84
2022-09-21T15:36:41.813Z,99794.91
2022-09-21T15:39:23.032Z,99798.91
2022-09-21T15:42:18.091Z,99792.63
2022-09-21T15:44:48.736Z,99797.47
2022-09-21T15:47:20.152Z,99808.94
2022-09-21T15:49:49.194Z,99806.47
2022-09-21T15:52:24.828Z,99810.00
2022-09-21T15:54:59.506Z,99807.28
2022-09-21T15:57:38.996Z,99807.53
2022-09-21T16:00:20.052Z,99816.50
2022-09-21T16:03:05.437Z,99818.41
2022-09-21T16:05:46.308Z,99819.22
2022-09-21T16:08:36.514Z,99839.31
2022-09-21T16:11:23.248Z,99839.31
2022-09-21T16:14:21.500Z,99839.53
2022-09-21T16:17:25.351Z,99832.44
2022-09-21T16:20:19.958Z,99843.50
2022-09-21T16:22:50.369Z,99842.09
2022-09-21T16:25:30.131Z,99847.53
2022-09-21T16:28:00.893Z,99854.88
2022-09-21T17:06:22.872Z,99884.53
2022-09-21T17:08:51.437Z,99884.25
2022-09-21T17:11:21.087Z,99896.81
2022-09-21T17:13:50.045Z,99904.19
2022-09-21T17:16:20.256Z,99911.84
2022-09-21T17:18:50.200Z,99913.75
2022-09-21T17:21:20.129Z,99920.72
2022-09-21T17:23:48.530Z,99915.56
2022-09-21T17:26:21.221Z,99913.13
2022-09-21T17:28:50.264Z,99919.16
2022-09-21T18:59:15.983Z,99902.41
2022-09-21T19:01:45.606Z,99910.75
2022-09-21T19:04:17.153Z,99907.44
2022-09-21T19:06:52.582Z,99910.16
2022-09-21T19:09:33.250Z,99907.66
2022-09-21T19:12:18.506Z,99914.75
2022-09-21T19:14:59.207Z,99914.53
2022-09-21T19:17:43.137Z,99916.63
2022-09-21T19:20:30.896Z,99922.03
2022-09-21T19:23:06.321Z,99922.88
2022-09-21T19:25:48.684Z,99919.09
2022-09-21T19:28:38.969Z,99918.91
2022-09-21T19:31:12.984Z,99919.09
2022-09-21T19:33:51.092Z,99925.16
2022-09-21T19:36:20.663Z,99919.75
2022-09-21T19:38:49.397Z,99913.50
2022-09-21T19:41:35.242Z,99909.75
2022-09-21T19:44:16.909Z,99911.38
2022-09-21T19:46:54.757Z,99912.03
2022-09-21T19:49:27.672Z,99911.19
2022-09-21T19:51:58.207Z,99906.63
2022-09-21T19:54:45.271Z,99915.34
2022-09-21T19:57:34.008Z,99909.91
2022-09-21T20:00:03.333Z,99922.03
2022-09-21T20:02:45.679Z,99912.63
2022-09-21T20:05:23.352Z,99905.34
2022-09-21T20:07:55.960Z,99914.09
2022-09-21T20:10:44.361Z,99913.03
2022-09-21T20:13:39.828Z,99906.59
2022-09-21T20:16:22.477Z,99905.53
2022-09-21T20:18:59.104Z,99900.97
2022-09-21T20:21:37.946Z,99903.66
2022-09-21T20:24:19.653Z,99897.81
2022-09-21T20:26:50.756Z,99908.66
2022-09-21T20:29:20.318Z,99901.59
2022-09-21T20:31:52.402Z,99901.19
2022-09-21T20:34:22.275Z,99897.19
2022-09-21T20:36:50.746Z,99897.19
2022-09-21T20:39:19.169Z,99889.69
2022-09-21T20:41:47.530Z,99890.75
2022-09-21T20:44:16.141Z,99887.81
2022-09-21T20:46:44.545Z,99893.66
2022-09-21T20:49:15.418Z,99887.41
2022-09-21T20:51:46.030Z,99890.75
2022-09-21T20:54:14.332Z,99876.59
2022-09-21T20:56:42.837Z,99890.13
2022-09-21T20:59:11.193Z,99882.84
2022-09-21T21:01:39.684Z,99878.03
2022-09-21T21:04:08.338Z,99883.22
2022-09-21T21:06:37.870Z,99876.16
2022-09-21T21:09:07.733Z,99877.00
2022-09-21T21:11:36.115Z,99872.00
2022-09-21T21:14:05.016Z,99871.81
2022-09-21T21:16:34.295Z,99873.88
2022-09-21T21:19:02.740Z,99875.53
2022-09-21T21:21:31.254Z,99876.81
2022-09-21T21:24:16.954Z,99874.31
2022-09-21T21:27:03.250Z,99871.81
2022-09-21T21:29:32.358Z,99880.53
2022-09-21T21:32:01.138Z,99881.19
2022-09-21T21:34:29.629Z,99880.53
2022-09-21T21:36:58.139Z,99877.00
2022-09-21T21:39:26.503Z,99874.94
2022-09-21T21:41:56.269Z,99871.59
2022-09-21T21:44:24.737Z,99867.22
2022-09-21T21:46:53.488Z,99869.31
2022-09-21T21:49:22.593Z,99873.91
2022-09-21T21:51:51.282Z,99867.44
2022-09-21T21:54:22.371Z,99866.41
2022-09-21T21:56:51.212Z,99878.72
2022-09-21T21:59:21.706Z,99879.31
2022-09-21T22:01:50.134Z,99884.72
2022-09-21T22:04:18.528Z,99884.53
2022-09-21T22:06:46.870Z,99885.78
2022-09-21T22:09:16.532Z,99886.41
2022-09-21T22:11:44.983Z,99881.63
2022-09-21T22:14:13.395Z,99887.88
2022-09-21T22:16:43.238Z,99887.44
2022-09-21T22:19:11.767Z,99893.91
2022-09-21T22:21:42.454Z,99893.28
2022-09-21T22:24:11.525Z,99889.97
2022-09-21T22:26:43.450Z,99894.34
2022-09-21T22:29:13.503Z,99882.69
2022-09-21T22:31:45.059Z,99876.22
2022-09-21T22:34:14.886Z,99873.50
2022-09-21T22:36:44.689Z,99877.03
2022-09-21T22:39:14.062Z,99877.47
2022-09-21T22:41:43.523Z,99871.22
2022-09-21T22:44:12.593Z,99880.38
2022-09-21T22:46:42.593Z,99871.44
2022-09-21T22:49:10.983Z,99875.81
2022-09-21T22:51:39.487Z,99878.72
2022-09-21T22:54:08.036Z,99878.72
2022-09-21T22:56:36.625Z,99881.22
2022-09-21T22:59:06.534Z,99887.44
2022-09-21T23:01:36.707Z,99879.34
2022-09-21T23:04:08.814Z,99878.31
2022-09-21T23:06:39.130Z,99874.56
2022-09-21T23:09:09.348Z,99878.31
2022-09-21T23:11:40.136Z,99881.84
2022-09-21T23:14:08.632Z,99876.22
2022-09-21T23:16:37.108Z,99884.56
2022-09-21T23:19:07.231Z,99878.91
2022-09-21T23:21:35.559Z,99872.69
2022-09-21T23:24:05.458Z,99873.50
2022-09-21T23:26:34.877Z,99875.19
2022-09-21T23:29:08.339Z,99876.00
2022-09-21T23:31:41.112Z,99866.00
2022-09-21T23:34:13.779Z,99863.31
2022-09-21T23:36:42.706Z,99856.84
2022-09-21T23:39:12.741Z,99862.47
2022-09-21T23:41:41.759Z,99858.72
2022-09-21T23:44:10.384Z,99858.72
2022-09-21T23:46:40.509Z,99853.06
2022-09-21T23:49:09.138Z,99854.13
2022-09-21T23:51:38.911Z,99848.94
2022-09-21T23:54:07.571Z,99844.56
2022-09-21T23:56:36.300Z,99847.25
2022-09-21T23:59:05.683Z,99852.25
